Belle Chasse, Louisiana
Current Conditions -  °F | °C
As of 7:55 AM on Thursday 23 Oct 2014 (Local Time) from KNBG Reporting Station
Few Clouds Few Clouds  
Wind Chill: 59°   Ceiling: Unl
Heat Index: 59°   Visibility: 10mi
Dew Point: 51°   Wind: 6mph
Humidity: 75%   Direction: 30°NNE
Pressure: 30.08"   Gusts: NA
Location:  29.85°N, 89.99°W
Report Text: KNBG 231255Z 03005KT 10SM FEW250 15/11 A3008 RMK AO2 SLP183 T01500106 $
Loading
Personal Weather Stations






























Interactive Weather Map
Tropical Storm Tracking
New forecast layout! Learn more

10-Day Weather Forecast

Advertisements
Track Severe Weather on mobile